Time;durP1;ratioP1;P1;durP2;ratioP2;P2;SDS_P1;SDS_P2;PMS_P1;PMS_P2;Temp;Humidity;BMP_temperature;BMP_pressure;BME280_temperature;BME280_humidity;BME280_pressure;Samples;Min_cycle;Max_cycle;Signal;HPM_P1;HPM_P2
2021/04/05 00:00:50;;;;;;;;;;;;;;;2.29;66.45;99773.98;115484;1201;23202;-58
2021/04/05 00:03:26;;;;;;;;;;;;;;;2.28;66.55;99772.42;115064;1204;24655;-57
2021/04/05 00:05:54;;;;;;;;;;;;;;;2.25;66.50;99765.05;115088;1204;24690;-56
2021/04/05 00:08:21;;;;;;;;;;;;;;;2.25;66.44;99764.27;115102;1203;23013;-57
2021/04/05 00:10:50;;;;;;;;;;;;;;;2.22;66.47;99757.64;115102;1204;21627;-57
2021/04/05 00:13:20;;;;;;;;;;;;;;;2.21;66.67;99749.82;115118;1204;24639;-56
2021/04/05 00:15:48;;;;;;;;;;;;;;;2.19;66.78;99746.73;115070;1204;21636;-57
2021/04/05 00:18:16;;;;;;;;;;;;;;;2.17;66.73;99740.88;115116;1205;21662;-55
2021/04/05 00:20:47;;;;;;;;;;;;;;;2.15;66.72;99743.30;115143;1204;25975;-57
2021/04/05 00:23:15;;;;;;;;;;;;;;;2.16;66.71;99747.58;115096;1205;21601;-57
2021/04/05 00:25:42;;;;;;;;;;;;;;;2.15;66.80;99737.79;115274;1205;21682;-57
2021/04/05 00:28:10;;;;;;;;;;;;;;;2.14;67.02;99738.98;115072;1204;21744;-55
2021/04/05 00:30:38;;;;;;;;;;;;;;;2.11;66.80;99737.86;115171;1204;21676;-56
2021/04/05 00:33:06;;;;;;;;;;;;;;;2.10;66.95;99730.05;115083;1204;24329;-57
2021/04/05 00:35:36;;;;;;;;;;;;;;;2.09;66.76;99726.52;115084;1205;21673;-56
2021/04/05 00:38:05;;;;;;;;;;;;;;;2.06;66.95;99715.60;115143;1204;25838;-58
2021/04/05 00:40:35;;;;;;;;;;;;;;;2.03;67.04;99708.98;115157;1204;21839;-56
2021/04/05 00:43:04;;;;;;;;;;;;;;;2.03;67.04;99702.72;115219;1204;21691;-57
2021/04/05 00:45:32;;;;;;;;;;;;;;;2.03;67.14;99697.22;115275;1204;26936;-56
2021/04/05 00:48:01;;;;;;;;;;;;;;;2.04;67.25;99690.48;115133;1204;21623;-57
2021/04/05 00:50:41;;;;;;;;;;;;;;;2.02;67.19;99682.67;115199;1204;21742;-55
2021/04/05 00:53:11;;;;;;;;;;;;;;;2.03;67.21;99678.69;115171;1204;24308;-58
2021/04/05 00:55:39;;;;;;;;;;;;;;;2.00;67.02;99663.06;115055;1204;21604;-55
2021/04/05 00:58:07;;;;;;;;;;;;;;;2.00;67.02;99656.78;114999;1205;21676;-54
2021/04/05 01:00:37;;;;;;;;;;;;;;;1.96;67.06;99656.10;115206;1204;25982;-58
2021/04/05 01:03:06;;;;;;;;;;;;;;;1.93;67.06;99648.70;115249;1204;21717;-57
2021/04/05 01:05:33;;;;;;;;;;;;;;;1.91;67.07;99648.36;115094;1204;21673;-58
2021/04/05 01:08:03;;;;;;;;;;;;;;;1.90;67.08;99650.36;115060;1204;25834;-57
2021/04/05 01:10:32;;;;;;;;;;;;;;;1.90;67.13;99638.58;115304;1205;24613;-56
2021/04/05 01:13:01;;;;;;;;;;;;;;;1.90;67.12;99633.07;115198;1204;21604;-58
2021/04/05 01:15:29;;;;;;;;;;;;;;;1.89;67.14;99626.78;115339;1204;24652;-57
2021/04/05 01:17:57;;;;;;;;;;;;;;;1.88;67.08;99610.72;115149;1203;24347;-56
2021/04/05 01:20:26;;;;;;;;;;;;;;;1.87;66.97;99604.43;115531;1204;21669;-57
2021/04/05 01:22:55;;;;;;;;;;;;;;;1.86;67.26;99602.91;115275;1205;22408;-58
2021/04/05 01:25:23;;;;;;;;;;;;;;;1.86;67.00;99591.11;115188;1205;21669;-55
2021/04/05 01:27:52;;;;;;;;;;;;;;;1.84;67.09;99591.55;115190;1205;21604;-55
2021/04/05 01:30:28;;;;;;;;;;;;;;;1.83;67.19;99591.97;115219;1205;21657;-57
2021/04/05 01:33:02;;;;;;;;;;;;;;;1.83;67.05;99589.22;115124;1205;21608;-57
2021/04/05 01:35:31;;;;;;;;;;;;;;;1.83;67.35;99586.47;115182;1204;24581;-54
2021/04/05 01:37:58;;;;;;;;;;;;;;;1.83;67.44;99583.71;115155;1204;21608;-57
2021/04/05 01:40:26;;;;;;;;;;;;;;;1.80;67.04;99570.84;115049;1204;21676;-57
2021/04/05 01:42:54;;;;;;;;;;;;;;;1.79;66.97;99553.55;115097;1205;21604;-56
2021/04/05 01:45:22;;;;;;;;;;;;;;;1.79;66.92;99552.77;115313;1204;21601;-56
2021/04/05 01:47:50;;;;;;;;;;;;;;;1.77;67.01;99563.44;115125;1205;21600;-56
2021/04/05 01:50:20;;;;;;;;;;;;;;;1.76;67.17;99556.41;115296;1203;23203;-57
2021/04/05 01:52:47;;;;;;;;;;;;;;;1.75;67.11;99541.09;115299;1204;21670;-57
2021/04/05 01:55:16;;;;;;;;;;;;;;;1.75;67.16;99541.09;115125;1202;23198;-57
2021/04/05 01:57:44;;;;;;;;;;;;;;;1.72;66.96;99537.23;115201;1204;21727;-55
2021/04/05 02:00:14;;;;;;;;;;;;;;;1.71;66.99;99532.17;115249;1204;24646;-57
2021/04/05 02:02:42;;;;;;;;;;;;;;;1.72;67.13;99522.72;115193;1204;24652;-57
2021/04/05 02:05:11;;;;;;;;;;;;;;;1.68;67.10;99514.55;115071;1205;21743;-56
2021/04/05 02:07:40;;;;;;;;;;;;;;;1.67;67.21;99510.27;115291;1204;21676;-57
2021/04/05 02:10:11;;;;;;;;;;;;;;;1.68;67.22;99506.30;115057;1204;25937;-56
2021/04/05 02:12:38;;;;;;;;;;;;;;;1.66;66.91;99508.71;115519;1204;21672;-57
2021/04/05 02:15:09;;;;;;;;;;;;;;;1.62;67.04;99508.04;115137;1205;21714;-55
2021/04/05 02:17:37;;;;;;;;;;;;;;;1.61;67.07;99503.77;115417;1205;21605;-55
2021/04/05 02:20:08;;;;;;;;;;;;;;;1.59;67.09;99503.42;115046;1205;25835;-57
2021/04/05 02:22:39;;;;;;;;;;;;;;;1.58;67.20;99488.89;115239;1205;21776;-57
2021/04/05 02:25:11;;;;;;;;;;;;;;;1.57;67.13;99478.33;115391;1204;21600;-57
2021/04/05 02:27:39;;;;;;;;;;;;;;;1.57;67.14;99478.33;115249;1204;22053;-55
2021/04/05 02:30:09;;;;;;;;;;;;;;;1.55;67.30;99473.25;115146;1202;23373;-55
2021/04/05 02:32:39;;;;;;;;;;;;;;;1.52;67.11;99457.63;115209;1204;21672;-57
2021/04/05 02:35:08;;;;;;;;;;;;;;;1.50;67.12;99443.55;115155;1205;24314;-56
2021/04/05 02:37:36;;;;;;;;;;;;;;;1.47;66.96;99430.66;115317;1205;21604;-58
2021/04/05 02:40:05;;;;;;;;;;;;;;;1.46;67.05;99431.09;115046;1204;21588;-57
2021/04/05 02:42:34;;;;;;;;;;;;;;;1.45;67.18;99435.04;115347;1204;21740;-57
2021/04/05 02:45:03;;;;;;;;;;;;;;;1.39;67.08;99425.79;115119;1204;21608;-55
2021/04/05 02:47:31;;;;;;;;;;;;;;;1.35;67.24;99414.13;115246;1204;21814;-55
2021/04/05 02:50:00;;;;;;;;;;;;;;;1.30;67.12;99406.43;115174;1205;21743;-54
2021/04/05 02:52:27;;;;;;;;;;;;;;;1.26;67.22;99405.76;115136;1203;21695;-57
2021/04/05 02:54:55;;;;;;;;;;;;;;;1.22;67.34;99394.09;115139;1205;21633;-56
2021/04/05 02:57:24;;;;;;;;;;;;;;;1.20;67.21;99402.01;115070;1204;21723;-58
2021/04/05 02:59:52;;;;;;;;;;;;;;;1.19;67.24;99390.23;115210;1205;21601;-58
2021/04/05 03:02:19;;;;;;;;;;;;;;;1.18;67.37;99402.42;115288;1205;21601;-58
2021/04/05 03:04:48;;;;;;;;;;;;;;;1.14;67.19;99382.51;115148;1205;21794;-59
2021/04/05 03:07:15;;;;;;;;;;;;;;;1.11;67.19;99382.63;115259;1204;21811;-55
2021/04/05 03:09:43;;;;;;;;;;;;;;;1.11;67.25;99368.88;115188;1204;24331;-58
2021/04/05 03:12:12;;;;;;;;;;;;;;;1.10;67.55;99361.83;114887;1204;21717;-55
2021/04/05 03:14:39;;;;;;;;;;;;;;;1.09;67.30;99350.08;115168;1204;21608;-57
2021/04/05 03:17:09;;;;;;;;;;;;;;;1.09;67.66;99339.09;115235;1204;24309;-56
2021/04/05 03:19:38;;;;;;;;;;;;;;;1.08;67.64;99340.28;115265;1203;21893;-55
2021/04/05 03:22:06;;;;;;;;;;;;;;;1.09;67.51;99332.81;115189;1203;21600;-56
2021/04/05 03:24:36;;;;;;;;;;;;;;;1.10;67.51;99331.59;115205;1204;26886;-58
2021/04/05 03:27:04;;;;;;;;;;;;;;;1.09;67.32;99316.32;115255;1204;21611;-55
2021/04/05 03:29:34;;;;;;;;;;;;;;;1.09;67.38;99316.32;115321;1204;21617;-55
2021/04/05 03:32:03;;;;;;;;;;;;;;;1.08;67.58;99310.05;115192;1204;21608;-58
2021/04/05 03:34:32;;;;;;;;;;;;;;;1.08;67.67;99310.05;115233;1205;21608;-55
2021/04/05 03:37:03;;;;;;;;;;;;;;;1.06;67.42;99293.22;115293;1205;24307;-55
2021/04/05 03:39:31;;;;;;;;;;;;;;;1.06;67.33;99286.95;115158;1204;24319;-54
2021/04/05 03:42:00;;;;;;;;;;;;;;;1.03;67.42;99277.63;115143;1204;21600;-57
2021/04/05 03:44:35;;;;;;;;;;;;;;;1.03;67.41;99274.09;115200;1204;21668;-55
2021/04/05 03:47:08;;;;;;;;;;;;;;;1.03;67.51;99268.59;115192;1204;24646;-56
2021/04/05 03:49:37;;;;;;;;;;;;;;;1.02;67.54;99267.05;115230;1205;21606;-55
2021/04/05 03:52:09;;;;;;;;;;;;;;;1.02;67.69;99258.80;115144;1204;21601;-58
2021/04/05 03:54:43;;;;;;;;;;;;;;;1.02;67.81;99247.80;115277;1204;25953;-55
2021/04/05 03:57:12;;;;;;;;;;;;;;;1.02;67.61;99240.34;115148;1205;21747;-55
2021/04/05 03:59:44;;;;;;;;;;;;;;;1.01;67.69;99244.31;115129;1205;21743;-57
2021/04/05 04:02:15;;;;;;;;;;;;;;;1.01;67.66;99235.29;115126;1204;21605;-55
2021/04/05 04:04:50;;;;;;;;;;;;;;;1.01;67.74;99219.58;115184;1205;21601;-54
2021/04/05 04:07:24;;;;;;;;;;;;;;;1.01;67.65;99225.07;115100;1205;21679;-57
2021/04/05 04:09:54;;;;;;;;;;;;;;;1.02;67.90;99223.07;115210;1203;23297;-55
2021/04/05 04:12:22;;;;;;;;;;;;;;;1.03;67.78;99200.67;115096;1204;21601;-57
2021/04/05 04:14:51;;;;;;;;;;;;;;;1.01;67.85;99200.34;115086;1205;21882;-55
2021/04/05 04:17:20;;;;;;;;;;;;;;;1.02;67.88;99209.33;115201;1204;25092;-55
2021/04/05 04:19:48;;;;;;;;;;;;;;;1.04;67.88;99191.20;115133;1204;24771;-56
2021/04/05 04:22:15;;;;;;;;;;;;;;;1.05;67.56;99190.00;115129;1204;21684;-54
2021/04/05 04:24:44;;;;;;;;;;;;;;;1.05;67.88;99181.76;115186;1205;23597;-55
2021/04/05 04:27:14;;;;;;;;;;;;;;;1.05;67.96;99180.98;115151;1203;25027;-56
2021/04/05 04:29:51;;;;;;;;;;;;;;;1.06;67.98;99169.54;115198;1196;21672;-56
2021/04/05 04:32:19;;;;;;;;;;;;;;;1.07;68.09;99153.83;115158;1205;21648;-57
2021/04/05 04:34:47;;;;;;;;;;;;;;;1.10;67.92;99150.17;115173;1204;21604;-56
2021/04/05 04:37:16;;;;;;;;;;;;;;;1.13;67.96;99144.59;115168;1204;26149;-55
2021/04/05 04:39:44;;;;;;;;;;;;;;;1.15;67.95;99136.67;115115;1205;21811;-55
2021/04/05 04:42:12;;;;;;;;;;;;;;;1.20;68.18;99129.85;115120;1204;21601;-57
2021/04/05 04:44:40;;;;;;;;;;;;;;;1.22;68.35;99127.42;115137;1200;24217;-57
2021/04/05 04:47:08;;;;;;;;;;;;;;;1.26;68.16;99112.33;115123;1203;21601;-55
2021/04/05 04:49:35;;;;;;;;;;;;;;;1.29;68.11;99103.20;115161;1204;21608;-55
2021/04/05 04:52:03;;;;;;;;;;;;;;;1.34;68.12;99101.88;115101;1196;24570;-57
2021/04/05 04:54:31;;;;;;;;;;;;;;;1.39;68.02;99104.05;115075;1200;23670;-54
2021/04/05 04:56:58;;;;;;;;;;;;;;;1.44;68.18;99103.50;115064;1204;21669;-57
2021/04/05 04:59:27;;;;;;;;;;;;;;;1.48;68.05;99088.41;115077;1204;25959;-57
2021/04/05 05:01:56;;;;;;;;;;;;;;;1.54;68.29;99075.63;115146;1205;21601;-56
2021/04/05 05:04:24;;;;;;;;;;;;;;;1.60;68.16;99081.31;115271;1205;21608;-54
2021/04/05 05:06:55;;;;;;;;;;;;;;;1.65;68.03;99070.50;115383;1204;24319;-56
2021/04/05 05:09:23;;;;;;;;;;;;;;;1.71;68.22;99067.97;115214;1204;21600;-57
2021/04/05 05:11:51;;;;;;;;;;;;;;;1.78;68.05;99064.94;115233;1204;21604;-57
2021/04/05 05:14:19;;;;;;;;;;;;;;;1.85;68.19;99061.95;115111;1205;21601;-55
2021/04/05 05:16:48;;;;;;;;;;;;;;;1.90;67.96;99061.38;115160;1202;23597;-54
2021/04/05 05:19:16;;;;;;;;;;;;;;;1.97;68.21;99055.59;115178;1204;21739;-57
2021/04/05 05:21:46;;;;;;;;;;;;;;;2.01;68.03;99058.98;115204;1205;21605;-56
2021/04/05 05:24:17;;;;;;;;;;;;;;;2.10;68.32;99048.03;115236;1204;21749;-55
2021/04/05 05:26:48;;;;;;;;;;;;;;;2.17;68.27;99052.52;115171;1204;25844;-55
2021/04/05 05:29:18;;;;;;;;;;;;;;;2.25;68.04;99042.76;115179;1204;21771;-56
2021/04/05 05:31:46;;;;;;;;;;;;;;;2.31;68.17;99038.97;115289;1205;21599;-54
2021/04/05 05:34:14;;;;;;;;;;;;;;;2.39;68.14;99042.98;115110;1202;23240;-56
2021/04/05 05:36:43;;;;;;;;;;;;;;;2.48;68.15;99033.99;115128;1204;21608;-55
2021/04/05 05:39:11;;;;;;;;;;;;;;;2.57;68.19;99035.98;115164;1204;21600;-55
2021/04/05 05:41:44;;;;;;;;;;;;;;;2.67;68.05;99030.05;115292;1205;24645;-54
2021/04/05 05:44:14;;;;;;;;;;;;;;;2.76;68.11;99021.83;115366;1204;21656;-57
2021/04/05 05:46:44;;;;;;;;;;;;;;;2.85;68.08;99024.61;115164;1205;21774;-55
2021/04/05 05:49:15;;;;;;;;;;;;;;;2.93;67.79;99022.32;115221;1201;23202;-56
2021/04/05 05:51:57;;;;;;;;;;;;;;;3.01;68.17;99012.53;115093;1204;21605;-56
2021/04/05 05:54:28;;;;;;;;;;;;;;;3.12;68.28;99007.34;115117;1203;24072;-57
2021/04/05 05:57:02;;;;;;;;;;;;;;;3.23;67.94;99002.13;115286;1205;21672;-58
2021/04/05 05:59:32;;;;;;;;;;;;;;;3.33;67.96;99003.68;115363;1204;21600;-56
2021/04/05 06:02:06;;;;;;;;;;;;;;;3.44;67.89;99003.20;115340;1204;24722;-56
2021/04/05 06:04:48;;;;;;;;;;;;;;;3.54;67.84;98997.21;115274;1204;21693;-58
2021/04/05 06:07:21;;;;;;;;;;;;;;;3.69;68.17;99000.88;115115;1204;21601;-58
2021/04/05 06:10:02;;;;;;;;;;;;;;;3.80;67.88;99006.70;115230;1204;21612;-57
2021/04/05 06:12:37;;;;;;;;;;;;;;;3.93;67.82;98993.46;115195;1202;24614;-56
2021/04/05 06:15:14;;;;;;;;;;;;;;;4.06;67.60;98994.05;115220;1204;21601;-58
2021/04/05 06:17:58;;;;;;;;;;;;;;;4.20;67.68;99008.44;115363;1204;21719;-58
2021/04/05 06:20:28;;;;;;;;;;;;;;;4.34;67.33;98996.72;115079;1204;24642;-58
2021/04/05 06:22:59;;;;;;;;;;;;;;;4.46;67.49;98990.98;115240;1204;25837;-56
2021/04/05 06:25:33;;;;;;;;;;;;;;;4.58;67.38;98981.70;115461;1204;21600;-58
2021/04/05 06:28:06;;;;;;;;;;;;;;;4.72;67.58;98978.24;115225;1205;24385;-55
2021/04/05 06:30:41;;;;;;;;;;;;;;;4.89;67.42;98978.60;115299;1204;21633;-58
2021/04/05 06:33:13;;;;;;;;;;;;;;;5.02;66.98;98967.30;115307;1202;23239;-57
2021/04/05 06:36:06;;;;;;;;;;;;;;;5.16;66.75;98961.05;115248;1204;21697;-57
2021/04/05 06:38:34;;;;;;;;;;;;;;;5.28;66.57;98951.72;115054;1203;24315;-58
2021/04/05 06:41:15;;;;;;;;;;;;;;;5.36;66.56;98939.80;115040;1204;21604;-58
2021/04/05 06:43:52;;;;;;;;;;;;;;;5.44;66.67;98942.98;115091;1204;21740;-58
2021/04/05 06:46:29;;;;;;;;;;;;;;;5.52;66.57;98938.60;115113;1204;21600;-57
2021/04/05 06:49:25;;;;;;;;;;;;;;;5.63;66.70;98938.78;115231;1204;24016;-57
2021/04/05 06:52:22;;;;;;;;;;;;;;;5.77;66.57;98923.42;115281;1204;26719;-58
2021/04/05 06:55:07;;;;;;;;;;;;;;;5.90;66.56;98915.63;114710;1207;24771;-58
2021/04/05 06:57:45;;;;;;;;;;;;;;;6.05;66.52;98914.34;114728;1208;21750;-57
2021/04/05 07:00:15;;;;;;;;;;;;;;;6.21;66.42;98905.52;114822;1208;21595;-58
2021/04/05 07:03:01;;;;;;;;;;;;;;;6.35;66.01;98901.94;114861;1207;21617;-57
2021/04/05 07:05:38;;;;;;;;;;;;;;;6.51;66.30;98906.20;114802;1207;24892;-57
2021/04/05 07:08:12;;;;;;;;;;;;;;;6.69;66.04;98899.61;114700;1207;21608;-55
2021/04/05 07:10:45;;;;;;;;;;;;;;;6.86;65.76;98911.69;114849;1208;21682;-58
2021/04/05 07:13:20;;;;;;;;;;;;;;;7.07;65.64;98902.11;114881;1207;24440;-59
2021/04/05 07:15:51;;;;;;;;;;;;;;;7.27;65.83;98907.63;114647;1207;21685;-57
2021/04/05 07:18:40;;;;;;;;;;;;;;;7.40;65.14;98898.92;114703;1207;21697;-58
2021/04/05 07:21:16;;;;;;;;;;;;;;;7.55;64.78;98880.91;114853;1208;21601;-58
2021/04/05 07:23:53;;;;;;;;;;;;;;;7.65;63.93;98867.61;114693;1207;22063;-59
2021/04/05 07:26:35;;;;;;;;;;;;;;;7.72;63.66;98862.36;114774;1207;21817;-58
2021/04/05 07:29:08;;;;;;;;;;;;;;;7.81;63.40;98858.64;114871;1204;21829;-59
2021/04/05 07:31:38;;;;;;;;;;;;;;;7.95;63.03;98852.17;115368;1204;21679;-59
2021/04/05 07:34:23;;;;;;;;;;;;;;;8.09;63.13;98834.58;115143;1205;21608;-59
2021/04/05 07:36:57;;;;;;;;;;;;;;;8.21;62.34;98832.64;115323;1205;25809;-59
2021/04/05 07:39:32;;;;;;;;;;;;;;;8.29;62.34;98828.16;115209;1204;21608;-57
2021/04/05 07:42:04;;;;;;;;;;;;;;;8.36;62.11;98836.78;115217;1204;21672;-58
2021/04/05 07:44:46;;;;;;;;;;;;;;;8.43;61.65;98833.55;115348;1204;24761;-57
2021/04/05 07:47:20;;;;;;;;;;;;;;;8.54;61.95;98833.61;115062;1204;25962;-58
2021/04/05 07:49:52;;;;;;;;;;;;;;;8.64;61.99;98821.01;115263;1197;24707;-58
2021/04/05 07:52:27;;;;;;;;;;;;;;;8.76;61.13;98817.00;115189;1204;21704;-58
2021/04/05 07:54:55;;;;;;;;;;;;;;;8.85;61.40;98816.02;115176;1204;24178;-59
2021/04/05 07:57:28;;;;;;;;;;;;;;;8.91;60.78;98814.77;115402;1204;24357;-59
2021/04/05 08:00:03;;;;;;;;;;;;;;;8.97;60.51;98798.08;115261;1204;21601;-58
2021/04/05 08:02:39;;;;;;;;;;;;;;;9.00;59.92;98791.49;115130;1204;21743;-59
2021/04/05 08:05:16;;;;;;;;;;;;;;;9.04;59.95;98777.34;115163;1204;25874;-58
2021/04/05 08:07:56;;;;;;;;;;;;;;;9.08;59.11;98780.64;115193;1204;25148;-59
2021/04/05 08:10:30;;;;;;;;;;;;;;;9.13;59.18;98777.86;115066;1204;26395;-59
2021/04/05 08:13:05;;;;;;;;;;;;;;;9.17;58.67;98772.80;115137;1204;21668;-59
2021/04/05 08:15:36;;;;;;;;;;;;;;;9.23;58.69;98778.39;115185;1204;21700;-59
2021/04/05 08:18:12;;;;;;;;;;;;;;;9.31;58.78;98774.58;115235;1204;25116;-58
2021/04/05 08:20:43;;;;;;;;;;;;;;;9.40;58.64;98770.78;115652;1204;21628;-59
2021/04/05 08:23:18;;;;;;;;;;;;;;;9.50;58.18;98763.69;115447;1204;24319;-59
2021/04/05 08:25:57;;;;;;;;;;;;;;;9.61;57.67;98758.88;115451;1204;21811;-60
2021/04/05 08:28:29;;;;;;;;;;;;;;;9.72;57.47;98758.85;115391;1205;21700;-59
2021/04/05 08:31:08;;;;;;;;;;;;;;;9.91;57.87;98759.08;115460;1204;21604;-57
2021/04/05 08:33:40;;;;;;;;;;;;;;;10.10;57.60;98771.23;115608;1204;21600;-63
2021/04/05 08:36:17;;;;;;;;;;;;;;;10.29;57.32;98766.61;115570;1203;21601;-62
2021/04/05 08:38:51;;;;;;;;;;;;;;;10.42;56.72;98760.48;115684;1204;21675;-61
2021/04/05 08:41:30;;;;;;;;;;;;;;;10.51;56.51;98757.41;115512;1204;25787;-61
2021/04/05 08:44:01;;;;;;;;;;;;;;;10.58;56.47;98754.06;115671;1204;22316;-62
2021/04/05 08:46:31;;;;;;;;;;;;;;;10.67;56.15;98739.81;115508;1204;21743;-61
2021/04/05 08:48:59;;;;;;;;;;;;;;;10.79;55.86;98743.29;115426;1204;21592;-62
2021/04/05 08:51:30;;;;;;;;;;;;;;;10.87;53.89;98719.13;115665;1204;21679;-62
2021/04/05 08:54:01;;;;;;;;;;;;;;;10.91;52.69;98712.00;115552;1204;24633;-61
2021/04/05 08:56:31;;;;;;;;;;;;;;;10.95;54.46;98708.91;115536;1204;21601;-61
2021/04/05 08:59:02;;;;;;;;;;;;;;;11.00;54.58;98720.06;115602;1204;21600;-61
2021/04/05 09:01:36;;;;;;;;;;;;;;;11.09;53.53;98725.31;115515;1205;24360;-62
2021/04/05 09:04:04;;;;;;;;;;;;;;;11.17;52.84;98722.73;115227;1204;21711;-61
2021/04/05 09:06:36;;;;;;;;;;;;;;;11.12;52.83;98712.36;115601;1203;21676;-63
2021/04/05 09:09:06;;;;;;;;;;;;;;;11.11;52.64;98713.64;115514;1203;21608;-60
2021/04/05 09:11:36;;;;;;;;;;;;;;;11.03;52.38;98707.08;115578;1204;21743;-59
2021/04/05 09:14:06;;;;;;;;;;;;;;;11.02;52.31;98694.41;115464;1204;21604;-60
2021/04/05 09:16:51;;;;;;;;;;;;;;;10.97;53.18;98684.79;115593;1203;23200;-61
2021/04/05 09:19:45;;;;;;;;;;;;;;;10.92;52.12;98690.42;115307;1207;21685;-61
2021/04/05 09:22:31;;;;;;;;;;;;;;;10.84;52.94;98695.79;115373;1207;21693;-61
2021/04/05 09:25:06;;;;;;;;;;;;;;;10.84;52.68;98686.68;115301;1206;24563;-60
2021/04/05 09:27:42;;;;;;;;;;;;;;;10.80;52.71;98684.14;115146;1207;21686;-60
2021/04/05 09:30:28;;;;;;;;;;;;;;;10.78;52.06;98677.59;115275;1207;24621;-61
2021/04/05 09:33:20;;;;;;;;;;;;;;;10.75;52.15;98678.61;115200;1206;25821;-63
2021/04/05 09:36:00;;;;;;;;;;;;;;;10.76;52.51;98680.88;114952;1207;21750;-60
2021/04/05 09:38:35;;;;;;;;;;;;;;;10.80;52.16;98670.19;115194;1207;23561;-60
2021/04/05 09:41:21;;;;;;;;;;;;;;;10.80;51.75;98653.44;115166;1206;21646;-60
2021/04/05 09:44:08;;;;;;;;;;;;;;;10.78;52.16;98652.47;115213;1207;21754;-60
2021/04/05 09:46:50;;;;;;;;;;;;;;;10.78;52.45;98652.47;115274;1206;21784;-61
2021/04/05 09:49:25;;;;;;;;;;;;;;;10.80;53.04;98656.23;115242;1203;23161;-61
2021/04/05 09:52:09;;;;;;;;;;;;;;;10.85;51.90;98655.45;115178;1206;21682;-59
2021/04/05 09:54:40;;;;;;;;;;;;;;;10.84;51.28;98659.50;114936;1207;21703;-60
2021/04/05 09:57:10;;;;;;;;;;;;;;;10.83;51.61;98646.06;115267;1207;24605;-59
2021/04/05 09:59:42;;;;;;;;;;;;;;;10.86;52.01;98645.05;115500;1200;23272;-59
2021/04/05 10:02:11;;;;;;;;;;;;;;;10.89;51.14;98639.17;115371;1207;21676;-58
2021/04/05 10:04:41;;;;;;;;;;;;;;;10.92;52.00;98632.56;115408;1207;21625;-59
2021/04/05 10:07:10;;;;;;;;;;;;;;;10.95;51.44;98631.50;115367;1207;21888;-60
2021/04/05 10:09:38;;;;;;;;;;;;;;;10.97;51.16;98626.16;115718;1207;24555;-60
2021/04/05 10:12:08;;;;;;;;;;;;;;;10.96;51.58;98635.83;115241;1207;21818;-60
2021/04/05 10:14:39;;;;;;;;;;;;;;;11.01;51.67;98628.66;115307;1208;21618;-60
2021/04/05 10:17:09;;;;;;;;;;;;;;;11.04;51.98;98622.05;115172;1207;24569;-60
2021/04/05 10:19:40;;;;;;;;;;;;;;;11.04;50.31;98622.80;115758;1207;22461;-59
2021/04/05 10:22:10;;;;;;;;;;;;;;;11.02;51.50;98616.22;115414;1206;21657;-59
2021/04/05 10:24:41;;;;;;;;;;;;;;;11.04;51.51;98614.42;115110;1207;21688;-61
2021/04/05 10:27:10;;;;;;;;;;;;;;;11.04;50.96;98613.66;115302;1207;24460;-60
2021/04/05 10:29:38;;;;;;;;;;;;;;;11.05;51.13;98609.61;115484;1200;24573;-61
2021/04/05 10:32:07;;;;;;;;;;;;;;;11.08;51.52;98606.52;115449;1204;21811;-60
2021/04/05 10:34:36;;;;;;;;;;;;;;;11.14;51.32;98609.25;115723;1204;21604;-62
2021/04/05 10:37:09;;;;;;;;;;;;;;;11.20;51.59;98601.58;115711;1200;25815;-61
2021/04/05 10:39:37;;;;;;;;;;;;;;;11.24;51.00;98596.45;115503;1204;21673;-59
2021/04/05 10:42:10;;;;;;;;;;;;;;;11.33;50.75;98596.13;115586;1204;21612;-61
2021/04/05 10:44:39;;;;;;;;;;;;;;;11.42;50.72;98586.63;115685;1204;22321;-59
2021/04/05 10:47:11;;;;;;;;;;;;;;;11.52;51.31;98574.58;115571;1203;21608;-64
2021/04/05 10:49:40;;;;;;;;;;;;;;;11.63;49.40;98580.02;115308;1205;21694;-61
2021/04/05 10:52:11;;;;;;;;;;;;;;;11.71;49.10;98583.03;115672;1204;24641;-60
2021/04/05 10:54:40;;;;;;;;;;;;;;;11.76;48.83;98568.97;115656;1204;21605;-59
2021/04/05 10:57:10;;;;;;;;;;;;;;;11.80;49.49;98569.42;115635;1204;21608;-60
2021/04/05 10:59:43;;;;;;;;;;;;;;;11.87;50.12;98554.86;115625;1204;21672;-61
2021/04/05 11:02:12;;;;;;;;;;;;;;;11.96;49.74;98525.73;115925;1204;21607;-60
2021/04/05 11:04:41;;;;;;;;;;;;;;;12.02;49.32;98537.63;115689;1196;21604;-59
2021/04/05 11:07:11;;;;;;;;;;;;;;;12.06;49.11;98526.89;115631;1204;21703;-59
2021/04/05 11:09:40;;;;;;;;;;;;;;;12.08;48.18;98513.86;115637;1204;21675;-60
2021/04/05 11:12:09;;;;;;;;;;;;;;;12.07;48.18;98509.57;115803;1204;21597;-61
2021/04/05 11:14:38;;;;;;;;;;;;;;;12.04;48.49;98515.48;115610;1204;21594;-59
2021/04/05 11:17:06;;;;;;;;;;;;;;;12.00;48.68;98504.58;115697;1203;21611;-61
2021/04/05 11:19:36;;;;;;;;;;;;;;;11.98;48.36;98498.03;115639;1204;22053;-61
2021/04/05 11:22:06;;;;;;;;;;;;;;;11.98;48.68;98495.96;115540;1204;21624;-61
2021/04/05 11:24:35;;;;;;;;;;;;;;;12.00;48.54;98493.39;115628;1201;23138;-59
2021/04/05 11:27:06;;;;;;;;;;;;;;;11.98;48.74;98490.38;115532;1204;21704;-60
2021/04/05 11:29:34;;;;;;;;;;;;;;;12.01;48.92;98482.97;115509;1204;21703;-61
2021/04/05 11:32:03;;;;;;;;;;;;;;;11.98;48.92;98479.19;115560;1204;24280;-60
2021/04/05 11:34:34;;;;;;;;;;;;;;;12.01;48.85;98478.14;115722;1203;21685;-59
2021/04/05 11:37:03;;;;;;;;;;;;;;;12.02;48.16;98467.71;115488;1200;21636;-59
2021/04/05 11:39:33;;;;;;;;;;;;;;;12.01;47.59;98469.75;116633;1204;21601;-61
2021/04/05 11:42:03;;;;;;;;;;;;;;;12.03;48.16;98455.22;115496;1204;21600;-60
2021/04/05 11:44:38;;;;;;;;;;;;;;;12.04;48.18;98462.34;115684;1204;21685;-60
2021/04/05 11:47:07;;;;;;;;;;;;;;;12.07;47.53;98461.26;115650;1204;21608;-60
2021/04/05 11:49:36;;;;;;;;;;;;;;;12.08;47.40;98455.13;115669;1204;21579;-60
2021/04/05 11:52:06;;;;;;;;;;;;;;;12.10;46.39;98451.81;115574;1202;21720;-60
2021/04/05 11:54:37;;;;;;;;;;;;;;;12.15;46.92;98445.36;115633;1203;21601;-59
2021/04/05 11:57:07;;;;;;;;;;;;;;;12.18;46.17;98455.50;115446;1204;21704;-59
2021/04/05 11:59:37;;;;;;;;;;;;;;;12.23;45.24;98454.64;115638;1200;24344;-62
2021/04/05 12:02:07;;;;;;;;;;;;;;;12.29;45.84;98444.11;115659;1203;22053;-60
2021/04/05 12:04:38;;;;;;;;;;;;;;;12.34;45.54;98439.72;115618;1204;21604;-62
2021/04/05 12:07:10;;;;;;;;;;;;;;;12.40;45.54;98449.53;115627;1204;21665;-59
2021/04/05 12:09:39;;;;;;;;;;;;;;;12.47;45.33;98434.92;115567;1203;23202;-60
2021/04/05 12:12:09;;;;;;;;;;;;;;;12.51;44.87;98434.59;115404;1204;21663;-60
2021/04/05 12:14:39;;;;;;;;;;;;;;;12.54;45.43;98428.67;115678;1204;21672;-60
2021/04/05 12:17:07;;;;;;;;;;;;;;;12.56;44.85;98423.29;115662;1204;21634;-60
2021/04/05 12:19:37;;;;;;;;;;;;;;;12.57;44.86;98424.81;115623;1204;21673;-62
2021/04/05 12:22:07;;;;;;;;;;;;;;;12.58;44.95;98420.70;115589;1204;21684;-59
2021/04/05 12:24:36;;;;;;;;;;;;;;;12.58;45.05;98412.31;115502;1203;21789;-59
2021/04/05 12:27:07;;;;;;;;;;;;;;;12.58;45.09;98403.18;115713;1204;21742;-60
2021/04/05 12:29:37;;;;;;;;;;;;;;;12.56;45.71;98400.90;115644;1204;21745;-61
2021/04/05 12:32:08;;;;;;;;;;;;;;;12.57;45.29;98402.42;115690;1202;23128;-60
2021/04/05 12:34:40;;;;;;;;;;;;;;;12.57;44.94;98396.06;116942;1204;21671;-60
2021/04/05 12:37:16;;;;;;;;;;;;;;;12.57;45.73;98377.23;115855;1204;21608;-61
2021/04/05 12:39:46;;;;;;;;;;;;;;;12.59;45.78;98355.05;115790;1204;21593;-59
2021/04/05 12:42:16;;;;;;;;;;;;;;;12.63;45.77;98349.12;115710;1202;23128;-59
2021/04/05 12:44:46;;;;;;;;;;;;;;;12.65;45.76;98347.30;115590;1204;25790;-64
2021/04/05 12:47:15;;;;;;;;;;;;;;;12.68;45.19;98351.06;116009;1204;21759;-63
2021/04/05 12:49:43;;;;;;;;;;;;;;;12.65;45.55;98346.53;115761;1204;21600;-61
2021/04/05 12:52:13;;;;;;;;;;;;;;;12.61;45.03;98344.06;115444;1204;21624;-62
2021/04/05 12:54:45;;;;;;;;;;;;;;;12.55;44.75;98335.02;115422;1205;21644;-62
2021/04/05 12:57:26;;;;;;;;;;;;;;;12.51;45.18;98336.63;115662;1203;21600;-61
2021/04/05 12:59:55;;;;;;;;;;;;;;;12.46;45.79;98337.48;115431;1204;25857;-61
2021/04/05 13:02:25;;;;;;;;;;;;;;;12.43;45.64;98327.38;115789;1204;21579;-59
2021/04/05 13:04:57;;;;;;;;;;;;;;;12.39;45.43;98338.90;115426;1203;23239;-61